Airfield :
LOGIN :

Register | Disclaimer

   EN    FR    IT 

 










Legend :    VFR   Marginal VFR   IFR   Intensive IFR   Very Intensive IFR
Visi :
Ceiling :
>= 8 km
>= 3000ft
5 to 8 km
1000 to 3000 ft
1500m to 5 km
500 to 1000 ft
800 to 1500m
200 to 500 ft
< 800m
< 200 ft
Symbols :   Thunderstorms  Fog  Heavy snow  Heavy precipitations  Wind > 20 kt
SIGMETs :     Misc.  Thunderstorms  Icing  Turbulence  Mountain Waves  Volcanic Ashes







- Airport Elevation : 325 ft
- IATA code : POX
- Download approach charts


LFPT - Pontoise

CURRENT METAR :
  • 251430Z AUTO 18011KT 150V230 9999 VCTS SCT033/// BKN045/// BKN058/// ///CB 15/07 Q1004

EXPIRED METARs :
  • 251400Z AUTO 19013KT 9999 SCT034/// BKN046/// BKN058/// ///CB 14/06 Q1004
  • 251330Z AUTO 20013KT 160V220 9999 BKN033 BKN044 BKN056 14/06 Q1004
  • 251300Z AUTO 20010KT 9999 BKN026 BKN034 OVC042 13/07 Q1004
  • 251230Z AUTO 20010KT 170V240 9999 BKN025 BKN043 13/06 Q1003
  • 251200Z AUTO 20012KT 170V230 9999 BKN023 BKN032 OVC038 12/07 Q1004

TAF N/A
ATIS : +33 1 30 30 52 08
No reported NOTAMs for that airfield.
1 SIGMET reported for the Paris FIR (LFFF) :
 
Embedded thunderstorms
LFFF SIGMET 6 VALID 251350/251600 LFPW
LFFF PARIS FIR/UIR EMBD TS OBS AT 1350Z WI N5000 W00015 - N5045 E00115 - N4715 E00145 - N4715 E00000 - N5000 W00015 TOP FL290 MOV NE 25KT NC=



MET'MAP, your aeronautical weather chart ! - Copyright ORBIFLY December 2007 - Disclaimer

ORBIFLY MET'MAP TEAM :

Programming & Development : Alexandra Zaïnal
Concept & Development : Baudouin d'Aumeries
Co-Development & Prog : Marc-Olivier Méhu
Technical & hardware support : Manuel Goepfert

Contact : metmap@orbifly.com




SOURCES & CREDITS :

   NOAA